»·PEaware :: AAL737 L52-L88

AAL737 :: L52-L88

FLIGHT INFORMATION

Flight Status: Arrived
Operator:
American Airlines
More flights by this operator :: More flights under this callsign
Pilot: Thomas K. (23279)
Aircraft: Unknown
(738)
More flights by this aircraft type
Origin: L52 Oceano Co
United States
Destination: L88 New Cuyama
United States
More flights between these airports :: More routes between these airports
Route: FABEG
File this flight plan on PilotEdge
Remarks: CAT-01
Altitude:
(Current/Filed)
7,000ft
Speed:
(Current/Filed)
250kts
Departed: 09-Feb-19 01:01 AM
Arrived: 09-Feb-19 01:24 AM
Distance/Time
Traveled:
47nm/0:23
Distance/Time
To Go:
Arrived

Flight Plot

Page will automatically refresh every two minutes.

Flight plan parsing failed; only flown route is shown


Map Options




Map Legend


Flown Route
Filed Route
Departure Airport
Arrival Airport
Navaid (VOR, NDB)
Fix

Horizontal Profiles

Position Reports

Time Latitude Longitude Heading Altitude Ground
Speed
09-Feb-19 00:36 35.103412 -120.624154 35 25ft 0kts
09-Feb-19 00:37 35.103412 -120.624154 35 25ft 0kts
09-Feb-19 00:38 35.103412 -120.624154 35 25ft 0kts
09-Feb-19 00:39 35.103412 -120.624154 35 25ft 0kts
09-Feb-19 00:40 35.103412 -120.624154 35 25ft 0kts
09-Feb-19 00:41 35.103412 -120.624154 35 25ft 0kts
09-Feb-19 00:42 35.103412 -120.624154 35 25ft 0kts
09-Feb-19 00:43 35.103412 -120.624154 35 25ft 0kts
09-Feb-19 00:44 35.103412 -120.624154 35 25ft 0kts
09-Feb-19 00:45 35.103412 -120.624154 35 25ft 0kts
09-Feb-19 00:46 35.103412 -120.624154 35 25ft 0kts
09-Feb-19 00:47 35.103412 -120.624154 35 25ft 0kts
09-Feb-19 00:48 35.103412 -120.624153 35 25ft 0kts
09-Feb-19 00:49 35.103413 -120.624152 35 25ft 0kts
09-Feb-19 00:50 35.103415 -120.624151 35 25ft 0kts
09-Feb-19 00:50 35.103417 -120.624150 35 25ft 0kts
09-Feb-19 00:52 35.102780 -120.623550 126 25ft 4kts
09-Feb-19 00:53 35.101972 -120.622479 200 25ft 2kts
09-Feb-19 00:53 35.101284 -120.622778 145 25ft 3kts
09-Feb-19 00:55 35.099624 -120.620032 125 25ft 13kts
09-Feb-19 00:55 35.099206 -120.619586 91 25ft 0kts
09-Feb-19 00:56 35.099206 -120.619586 91 25ft 0kts
09-Feb-19 00:58 35.099206 -120.619575 91 25ft 0kts
09-Feb-19 00:58 35.099369 -120.619263 42 25ft 3kts
09-Feb-19 00:59 35.099717 -120.619305 317 25ft 0kts
09-Feb-19 01:00 35.110225 -120.637894 305 231ft 163kts
09-Feb-19 01:01 35.097921 -120.686483 186 988ft 191kts
09-Feb-19 01:02 35.065573 -120.645056 119 2487ft 186kts
09-Feb-19 01:03 35.039706 -120.589224 119 3992ft 190kts
09-Feb-19 01:04 35.011993 -120.533915 105 5438ft 194kts
09-Feb-19 01:05 35.004368 -120.467489 98 6959ft 199kts
09-Feb-19 01:06 34.995456 -120.400818 99 6999ft 199kts
09-Feb-19 01:07 34.986394 -120.334185 99 6999ft 199kts
09-Feb-19 01:08 34.977224 -120.267139 99 6999ft 199kts
09-Feb-19 01:09 34.968088 -120.200631 99 6999ft 199kts
09-Feb-19 01:10 34.958842 -120.133603 99 6999ft 199kts
09-Feb-19 01:11 34.949629 -120.067097 99 6999ft 199kts
09-Feb-19 01:12 34.940311 -120.000108 99 6999ft 199kts
09-Feb-19 01:13 34.930998 -119.933395 99 6999ft 199kts
09-Feb-19 01:14 34.921630 -119.866638 99 6999ft 199kts
09-Feb-19 01:15 34.912238 -119.799959 99 6999ft 199kts
09-Feb-19 01:16 34.898735 -119.734958 114 6718ft 200kts
09-Feb-19 01:17 34.876260 -119.674366 114 5359ft 192kts
09-Feb-19 01:18 34.855335 -119.617933 114 4247ft 168kts
09-Feb-19 01:19 34.865806 -119.573033 31 4035ft 160kts
09-Feb-19 01:20 34.900272 -119.581704 288 4041ft 160kts
09-Feb-19 01:21 34.914468 -119.631516 301 3052ft 151kts
09-Feb-19 01:22 34.933275 -119.677332 295 2411ft 146kts
09-Feb-19 01:23 34.940689 -119.696480 321 2206ft 0kts
09-Feb-19 01:24 34.940839 -119.696077 135 2209ft 5kts
09-Feb-19 01:25 34.939809 -119.694026 133 2214ft 2kts
09-Feb-19 01:26 34.939802 -119.693699 23 2214ft 0kts
09-Feb-19 01:27 34.939802 -119.693699 23 2214ft 0kts
09-Feb-19 01:28 34.939802 -119.693699 23 2214ft 0kts
09-Feb-19 01:29 34.939802 -119.693699 23 2214ft 0kts
09-Feb-19 01:30 34.939802 -119.693699 23 2214ft 0kts

Navigation Log

Ident Type
Flight plan parsing failed, navigation log unavailable